Danville Regional Airport
KDAN : now visible

Airfield :











YOU CAN JOIN US ON...

 
LOGIN :

Register | Disclaimer

   EN    FR    IT 

 









Legend :    VFR   Marginal VFR   IFR   Intensive IFR   Very Intensive IFR
Visi :
Ceiling :
>= 8 km
>= 3000ft
5 to 8 km
1000 to 3000 ft
1500m to 5 km
500 to 1000 ft
800 to 1500m
200 to 500 ft
< 800m
< 200 ft
Symbols :   Thunderstorms  Fog  Heavy snow  Heavy precipitations  Wind > 20 kt






- Airport Elevation : 571 ft
- IATA code : DAN


KDAN - Danville Regional

CURRENT METAR :
  • 142053Z AUTO 27010G20KT 10SM BKN045 OVC060 14/06 A2952 RMK AO2 SLP991 T01390056 53015

EXPIRED METARs :
  • 141953Z AUTO 25010KT 10SM FEW046 13/09 A2950 RMK AO2 SLP982 T01330089
  • 141904Z AUTO 24009KT 10SM FEW014 BKN036 OVC095 12/09 A2948 RMK AO2 T01170089
  • 141853Z AUTO 23011KT 10SM SCT014 BKN022 OVC036 11/08 A2948 RMK AO2 SLP978 T01110083

TAF KDAN
Valid from the 14 at 18:00 until the 15 at 18:00 UTC


141748Z 1418/1518 25008KT P6SM BKN010
FM142000 27009G19KT P6SM SCT010
FM142100 28009G19KT P6SM SCT100
FM142300 28007KT P6SM FEW100
FM150300 27005KT P6SM FEW250
FM150600 VRB03KT P6SM SKC



MET'MAP, your aeronautical weather chart ! - Copyright ORBIFLY December 2007 - Disclaimer

ORBIFLY MET'MAP TEAM :

Programming & Development : Alexandra Zaïnal
Concept & original design : Baudouin d'Aumeries
Assistance for programming : Marc-Olivier Méhu
Technical & hardware support : Manuel Goepfert

Contact : metmap@orbifly.com




SOURCES & CREDITS :

   NOAA       Earth
Advisory